x

Molasses Reef, Fl (mlrf1) Weather Station

2:00am - Tue 28th Mar 2017 All times are EDT. -4 hours from GMT.

  • Wind
    7mph, 8mph gusts
  • Sea Temp 78°f
  • Air Temp 75°f
  • Sea Pressure 1016.4mb
  • Molasses Reef, Fl
  • Molasses Reef, Fl

More Historic Weather Station data

Upgrade to MSW Pro to gain access to the past 30 days of data for over 8000 Wavebouys and Weather Stations around the globe.

Join Pro

Comparision Forecast

View Surf forecast
   
Tue 03/28 2:00am 7 8 mph 1016.4mb 78f 75f
1:00am 10 11 mph 1016.7mb 78f 75f
12:00am 11 14 mph 1016.7mb 78f 75f
Mon 03/27 11:00pm 9 11 mph 1016.9mb 78f 75f
10:00pm 9 11 mph 1016.6mb 78f 75f
9:00pm 13 15 mph 1016.1mb 78f 75f
8:00pm 13 14 mph 1016.1mb 78f 75f
7:00pm 15 16 mph 1015.6mb 78f 75f
6:00pm 13 15 mph 1015.8mb 78f 76f
5:00pm 11 13 mph 1016.2mb 77f 76f
4:00pm 13 14 mph 1016.8mb 78f 75f
3:00pm 6 8 mph 1017.7mb 78f 75f
1:00pm 7 9 mph 1018.8mb 78f 75f
12:00pm 11
mph
1019.1mb 78f 75f
11:00am 11 14 mph 1019mb 77f 75f
10:00am 13 14 mph 1018.7mb 77f 75f
9:00am 10 13 mph 1018mb 77f 75f
8:00am 14
mph
1017.1mb 77f 74f
7:00am 15 17 mph 1016.7mb 77f 74f
6:00am 10 13 mph 1016.4mb 77f 74f
5:00am 10 13 mph 1016.2mb 77f 74f
4:00am 14 15 mph 1016.6mb 77f 74f
3:00am 17
mph
- - 74f
12:00am 20 22 mph 1018.4mb 76f 75f
Sun 03/26 9:00pm 17 18 mph 1018.8mb 77f 75f
8:00pm 15 16 mph 1018.1mb 77f 75f
7:00pm 18 21 mph 1017.9mb 77f 75f
6:00pm 20 21 mph 1017.7mb 77f 75f
5:00pm 18 21 mph 1017.7mb 77f 75f
4:00pm 16 18 mph 1017.9mb 77f 75f
3:00pm 14 15 mph 1018.2mb 77f 75f
2:00pm 15 17 mph 1018.7mb 77f 75f
1:00pm 16 18 mph 1019.5mb 78f 75f
12:00pm 14 16 mph 1019.9mb 77f 75f
11:00am 18 20 mph 1019.5mb 77f 75f
10:00am 18 21 mph 1019.3mb 76f 75f
9:00am 20 21 mph 1018.9mb 76f 74f
8:00am 18 22 mph 1018.4mb 76f 75f
7:00am 20 22 mph 1017.9mb 76f 74f
6:06am 16 17 mph - 76f 74f
5:00am 17 18 mph 1017.3mb 76f 74f
4:00am 17 20 mph 1017.3mb 76f 74f
3:00am 18 22 mph 1018.1mb 76f 74f
2:00am 18 21 mph 1018.6mb 76f 74f
1:00am 21 24 mph 1018.8mb 76f 74f
12:00am 21 23 mph 1019.2mb 76f 75f
Sat 03/25 11:00pm 20 21 mph 1019.4mb 76f 74f
10:00pm 16 20 mph 1019.5mb 76f 75f
9:00pm 16 20 mph 1019.2mb 76f 75f
8:00pm 14 15 mph 1019mb 77f 74f
7:00pm 13 14 mph 1019.1mb 77f 75f
6:00pm 16 18 mph 1019.1mb 77f 74f
5:00pm 20 21 mph 1019.5mb 77f 74f
4:00pm 20
mph
- - -
3:00pm 18 20 mph 1020.3mb 76f 74f
2:00pm 22 23 mph 1021.1mb 76f 74f
1:00pm 21 23 mph 1021.7mb 76f 74f
12:00pm 23 25 mph 1022.1mb 76f 75f
11:00am 18 21 mph 1022.5mb 76f 74f
10:00am 23 24 mph 1021.8mb 76f 74f
9:00am 21 23 mph 1021.7mb 76f 74f
8:00am 24 26 mph 1021.1mb 76f 74f
7:00am 23 25 mph 1020.6mb 76f 74f
5:00am 23 26 mph 1020mb 76f 73f
4:00am 22 25 mph 1020.5mb 76f 73f
3:00am 23 25 mph 1020.9mb 76f 74f
2:00am 25 26 mph 1021.7mb 76f 74f
1:00am 24 26 mph 1022.4mb 76f 74f
12:00am 28 30 mph 1022.8mb 76f 72f
Fri 03/24 11:00pm 26 28 mph 1022.8mb 76f 74f
9:00pm 28 30 mph 1021.9mb 76f 74f
8:00pm 25 29 mph 1021.7mb 76f 74f
7:00pm 26 29 mph 1021.2mb 76f 74f
6:00pm 25 28 mph 1021.3mb 76f 73f
5:00pm 26
mph
1021.5mb 76f 74f
4:00pm 29 31 mph 1021.9mb 76f 73f
2:00pm 28 30 mph 1022.9mb 76f 73f
1:00pm 29 31 mph 1023.6mb 76f 74f
12:00pm 28 31 mph 1024.1mb 76f 74f
11:00am 29 32 mph 1024.2mb 76f 73f
10:00am 29 31 mph 1023.8mb 75f 74f
9:00am 25 28 mph 1023.8mb 75f 73f
8:00am 29 32 mph 1022.7mb 75f 73f